sensor_id;sensor_type;location;lat;lon;timestamp;P1;durP1;ratioP1;P2;durP2;ratioP2
60494;SDS011;46342;49.046;11.920;2024-03-23T00:53:44;7.63;;;5.47;;
60494;SDS011;46342;49.046;11.920;2024-03-23T00:56:09;7.47;;;5.57;;
60494;SDS011;46342;49.046;11.920;2024-03-23T00:58:35;6.43;;;5.55;;
60494;SDS011;46342;49.046;11.920;2024-03-23T01:01:00;7.22;;;5.53;;
60494;SDS011;46342;49.046;11.920;2024-03-23T01:03:28;6.63;;;5.57;;
60494;SDS011;46342;49.046;11.920;2024-03-23T01:05:54;7.70;;;5.35;;
60494;SDS011;46342;49.046;11.920;2024-03-23T01:08:19;7.65;;;5.60;;
60494;SDS011;46342;49.046;11.920;2024-03-23T01:10:58;6.28;;;5.38;;
60494;SDS011;46342;49.046;11.920;2024-03-23T01:13:24;7.70;;;4.80;;
60494;SDS011;46342;49.046;11.920;2024-03-23T01:15:50;7.82;;;5.43;;
60494;SDS011;46342;49.046;11.920;2024-03-23T01:18:18;5.83;;;5.23;;
60494;SDS011;46342;49.046;11.920;2024-03-23T01:20:44;5.85;;;5.07;;
60494;SDS011;46342;49.046;11.920;2024-03-23T01:23:10;5.57;;;4.82;;
60494;SDS011;46342;49.046;11.920;2024-03-23T01:25:36;6.50;;;5.07;;
60494;SDS011;46342;49.046;11.920;2024-03-23T01:28:02;5.10;;;4.55;;
60494;SDS011;46342;49.046;11.920;2024-03-23T01:30:27;5.97;;;4.70;;
60494;SDS011;46342;49.046;11.920;2024-03-23T01:32:53;8.25;;;5.30;;
60494;SDS011;46342;49.046;11.920;2024-03-23T01:35:19;5.57;;;4.95;;
60494;SDS011;46342;49.046;11.920;2024-03-23T01:37:44;6.30;;;5.10;;
60494;SDS011;46342;49.046;11.920;2024-03-23T01:40:10;6.80;;;5.20;;
60494;SDS011;46342;49.046;11.920;2024-03-23T01:42:38;6.63;;;5.25;;
60494;SDS011;46342;49.046;11.920;2024-03-23T01:45:05;8.27;;;5.32;;
60494;SDS011;46342;49.046;11.920;2024-03-23T01:47:33;6.68;;;5.03;;
60494;SDS011;46342;49.046;11.920;2024-03-23T01:49:59;5.82;;;4.43;;
60494;SDS011;46342;49.046;11.920;2024-03-23T01:52:25;5.15;;;4.35;;
60494;SDS011;46342;49.046;11.920;2024-03-23T01:54:55;4.90;;;4.40;;
60494;SDS011;46342;49.046;11.920;2024-03-23T01:57:20;5.18;;;4.38;;
60494;SDS011;46342;49.046;11.920;2024-03-23T01:59:47;5.03;;;4.40;;
60494;SDS011;46342;49.046;11.920;2024-03-23T02:02:13;4.85;;;3.72;;
60494;SDS011;46342;49.046;11.920;2024-03-23T02:04:39;4.55;;;3.70;;
60494;SDS011;46342;49.046;11.920;2024-03-23T02:07:07;5.72;;;3.90;;
60494;SDS011;46342;49.046;11.920;2024-03-23T02:09:33;4.22;;;3.83;;
60494;SDS011;46342;49.046;11.920;2024-03-23T02:11:59;4.63;;;3.78;;
60494;SDS011;46342;49.046;11.920;2024-03-23T02:14:27;4.75;;;3.72;;
60494;SDS011;46342;49.046;11.920;2024-03-23T02:16:53;4.28;;;3.35;;
60494;SDS011;46342;49.046;11.920;2024-03-23T02:19:18;4.72;;;3.55;;
60494;SDS011;46342;49.046;11.920;2024-03-23T02:21:44;3.13;;;2.83;;
60494;SDS011;46342;49.046;11.920;2024-03-23T02:24:11;3.47;;;3.15;;
60494;SDS011;46342;49.046;11.920;2024-03-23T02:26:39;3.13;;;2.85;;
60494;SDS011;46342;49.046;11.920;2024-03-23T02:29:04;3.80;;;2.80;;
60494;SDS011;46342;49.046;11.920;2024-03-23T02:31:30;3.85;;;3.10;;
60494;SDS011;46342;49.046;11.920;2024-03-23T02:33:55;3.40;;;3.00;;
60494;SDS011;46342;49.046;11.920;2024-03-23T02:36:21;3.05;;;2.80;;
60494;SDS011;46342;49.046;11.920;2024-03-23T02:38:46;2.47;;;2.28;;
60494;SDS011;46342;49.046;11.920;2024-03-23T02:41:12;2.85;;;2.53;;
60494;SDS011;46342;49.046;11.920;2024-03-23T02:43:38;2.45;;;2.20;;
60494;SDS011;46342;49.046;11.920;2024-03-23T02:46:04;2.72;;;2.00;;
60494;SDS011;46342;49.046;11.920;2024-03-23T02:48:29;2.42;;;2.22;;
60494;SDS011;46342;49.046;11.920;2024-03-23T02:50:55;2.17;;;1.98;;
60494;SDS011;46342;49.046;11.920;2024-03-23T02:53:21;2.92;;;2.13;;
60494;SDS011;46342;49.046;11.920;2024-03-23T02:55:46;2.03;;;1.92;;
60494;SDS011;46342;49.046;11.920;2024-03-23T02:58:12;2.22;;;1.98;;
60494;SDS011;46342;49.046;11.920;2024-03-23T03:00:37;2.67;;;1.88;;
60494;SDS011;46342;49.046;11.920;2024-03-23T03:03:03;2.40;;;1.88;;
60494;SDS011;46342;49.046;11.920;2024-03-23T03:05:29;2.30;;;2.10;;
60494;SDS011;46342;49.046;11.920;2024-03-23T03:07:54;2.42;;;1.83;;
60494;SDS011;46342;49.046;11.920;2024-03-23T03:10:20;2.15;;;1.67;;
60494;SDS011;46342;49.046;11.920;2024-03-23T03:12:45;3.55;;;1.80;;
60494;SDS011;46342;49.046;11.920;2024-03-23T03:15:11;1.90;;;1.70;;
60494;SDS011;46342;49.046;11.920;2024-03-23T03:17:37;1.83;;;1.73;;
60494;SDS011;46342;49.046;11.920;2024-03-23T03:20:03;1.90;;;1.80;;
60494;SDS011;46342;49.046;11.920;2024-03-23T03:22:29;2.28;;;1.75;;
60494;SDS011;46342;49.046;11.920;2024-03-23T03:24:55;1.98;;;1.77;;
60494;SDS011;46342;49.046;11.920;2024-03-23T03:27:21;1.92;;;1.75;;
60494;SDS011;46342;49.046;11.920;2024-03-23T03:29:47;2.08;;;1.88;;
60494;SDS011;46342;49.046;11.920;2024-03-23T03:32:13;1.50;;;1.40;;
60494;SDS011;46342;49.046;11.920;2024-03-23T03:34:38;1.92;;;1.83;;
60494;SDS011;46342;49.046;11.920;2024-03-23T03:37:04;3.55;;;1.88;;
60494;SDS011;46342;49.046;11.920;2024-03-23T03:39:29;1.75;;;1.65;;
60494;SDS011;46342;49.046;11.920;2024-03-23T03:41:55;1.58;;;1.48;;
60494;SDS011;46342;49.046;11.920;2024-03-23T03:44:20;1.67;;;1.58;;
60494;SDS011;46342;49.046;11.920;2024-03-23T03:46:46;2.00;;;1.58;;
60494;SDS011;46342;49.046;11.920;2024-03-23T03:49:12;5.25;;;1.67;;
60494;SDS011;46342;49.046;11.920;2024-03-23T03:51:37;2.03;;;1.70;;
60494;SDS011;46342;49.046;11.920;2024-03-23T03:54:03;3.65;;;2.10;;
60494;SDS011;46342;49.046;11.920;2024-03-23T03:56:28;2.08;;;1.38;;
60494;SDS011;46342;49.046;11.920;2024-03-23T03:58:54;1.95;;;1.50;;
60494;SDS011;46342;49.046;11.920;2024-03-23T04:01:20;1.58;;;1.48;;
60494;SDS011;46342;49.046;11.920;2024-03-23T04:03:46;1.50;;;1.40;;
60494;SDS011;46342;49.046;11.920;2024-03-23T04:06:11;2.40;;;1.52;;
60494;SDS011;46342;49.046;11.920;2024-03-23T04:08:37;1.70;;;1.60;;
60494;SDS011;46342;49.046;11.920;2024-03-23T04:11:03;1.50;;;1.40;;
60494;SDS011;46342;49.046;11.920;2024-03-23T04:13:28;1.52;;;1.42;;
60494;SDS011;46342;49.046;11.920;2024-03-23T04:15:54;2.33;;;1.70;;
60494;SDS011;46342;49.046;11.920;2024-03-23T04:18:21;2.10;;;1.60;;
60494;SDS011;46342;49.046;11.920;2024-03-23T04:20:47;2.08;;;1.70;;
60494;SDS011;46342;49.046;11.920;2024-03-23T04:23:13;1.50;;;1.40;;
60494;SDS011;46342;49.046;11.920;2024-03-23T04:25:39;2.80;;;1.50;;
60494;SDS011;46342;49.046;11.920;2024-03-23T04:28:04;1.58;;;1.48;;
60494;SDS011;46342;49.046;11.920;2024-03-23T04:30:30;1.60;;;1.40;;
60494;SDS011;46342;49.046;11.920;2024-03-23T04:32:56;1.60;;;1.50;;
60494;SDS011;46342;49.046;11.920;2024-03-23T04:35:23;2.22;;;1.85;;
60494;SDS011;46342;49.046;11.920;2024-03-23T04:37:52;2.92;;;1.48;;
60494;SDS011;46342;49.046;11.920;2024-03-23T04:40:18;1.45;;;1.35;;
60494;SDS011;46342;49.046;11.920;2024-03-23T04:42:44;1.38;;;1.27;;
60494;SDS011;46342;49.046;11.920;2024-03-23T04:45:09;1.55;;;1.45;;
60494;SDS011;46342;49.046;11.920;2024-03-23T04:47:35;1.48;;;1.38;;
60494;SDS011;46342;49.046;11.920;2024-03-23T04:50:02;2.20;;;1.50;;
60494;SDS011;46342;49.046;11.920;2024-03-23T04:52:29;4.68;;;1.50;;
60494;SDS011;46342;49.046;11.920;2024-03-23T04:54:54;1.65;;;1.55;;
60494;SDS011;46342;49.046;11.920;2024-03-23T04:57:20;1.80;;;1.70;;
60494;SDS011;46342;49.046;11.920;2024-03-23T04:59:46;1.50;;;1.40;;
60494;SDS011;46342;49.046;11.920;2024-03-23T05:02:12;1.55;;;1.45;;
60494;SDS011;46342;49.046;11.920;2024-03-23T05:04:38;1.48;;;1.38;;
60494;SDS011;46342;49.046;11.920;2024-03-23T05:07:03;1.88;;;1.40;;
60494;SDS011;46342;49.046;11.920;2024-03-23T05:09:29;1.50;;;1.40;;
60494;SDS011;46342;49.046;11.920;2024-03-23T05:12:01;1.27;;;1.17;;
60494;SDS011;46342;49.046;11.920;2024-03-23T05:14:27;1.63;;;1.27;;
60494;SDS011;46342;49.046;11.920;2024-03-23T05:16:53;2.25;;;1.30;;
60494;SDS011;46342;49.046;11.920;2024-03-23T05:19:19;2.97;;;1.60;;
60494;SDS011;46342;49.046;11.920;2024-03-23T05:21:44;2.15;;;1.50;;
60494;SDS011;46342;49.046;11.920;2024-03-23T05:24:11;1.40;;;1.30;;
60494;SDS011;46342;49.046;11.920;2024-03-23T05:26:37;1.55;;;1.27;;
60494;SDS011;46342;49.046;11.920;2024-03-23T05:29:02;1.80;;;1.30;;
60494;SDS011;46342;49.046;11.920;2024-03-23T05:31:29;1.10;;;1.10;;
60494;SDS011;46342;49.046;11.920;2024-03-23T05:33:55;1.33;;;1.20;;
60494;SDS011;46342;49.046;11.920;2024-03-23T05:36:21;1.30;;;1.20;;
60494;SDS011;46342;49.046;11.920;2024-03-23T05:38:47;1.63;;;1.35;;
60494;SDS011;46342;49.046;11.920;2024-03-23T05:41:13;1.00;;;1.00;;
60494;SDS011;46342;49.046;11.920;2024-03-23T05:43:38;1.25;;;1.10;;
60494;SDS011;46342;49.046;11.920;2024-03-23T05:46:04;1.40;;;1.30;;
60494;SDS011;46342;49.046;11.920;2024-03-23T05:48:30;3.33;;;2.40;;
60494;SDS011;46342;49.046;11.920;2024-03-23T05:50:56;1.63;;;1.52;;
60494;SDS011;46342;49.046;11.920;2024-03-23T05:53:22;1.88;;;1.48;;
60494;SDS011;46342;49.046;11.920;2024-03-23T05:55:49;2.58;;;1.20;;
60494;SDS011;46342;49.046;11.920;2024-03-23T05:58:16;1.20;;;1.10;;
60494;SDS011;46342;49.046;11.920;2024-03-23T06:00:43;1.52;;;1.27;;
60494;SDS011;46342;49.046;11.920;2024-03-23T06:03:09;1.55;;;1.27;;
60494;SDS011;46342;49.046;11.920;2024-03-23T06:05:35;1.40;;;1.30;;
60494;SDS011;46342;49.046;11.920;2024-03-23T06:08:04;1.60;;;1.50;;
60494;SDS011;46342;49.046;11.920;2024-03-23T06:10:30;1.30;;;1.20;;
60494;SDS011;46342;49.046;11.920;2024-03-23T06:12:56;1.30;;;1.20;;
60494;SDS011;46342;49.046;11.920;2024-03-23T06:15:23;3.63;;;1.65;;
60494;SDS011;46342;49.046;11.920;2024-03-23T06:17:49;1.50;;;1.20;;
60494;SDS011;46342;49.046;11.920;2024-03-23T06:20:15;1.45;;;1.30;;
60494;SDS011;46342;49.046;11.920;2024-03-23T06:22:40;1.60;;;1.40;;
60494;SDS011;46342;49.046;11.920;2024-03-23T06:25:06;1.30;;;1.20;;
60494;SDS011;46342;49.046;11.920;2024-03-23T06:27:32;1.20;;;1.10;;
60494;SDS011;46342;49.046;11.920;2024-03-23T06:29:58;1.13;;;1.10;;
60494;SDS011;46342;49.046;11.920;2024-03-23T06:32:24;1.77;;;1.48;;
60494;SDS011;46342;49.046;11.920;2024-03-23T06:34:49;1.40;;;1.30;;
60494;SDS011;46342;49.046;11.920;2024-03-23T06:37:15;1.30;;;1.20;;
60494;SDS011;46342;49.046;11.920;2024-03-23T06:39:41;1.27;;;1.17;;
60494;SDS011;46342;49.046;11.920;2024-03-23T06:42:06;1.30;;;1.20;;
60494;SDS011;46342;49.046;11.920;2024-03-23T06:44:33;1.73;;;1.58;;
60494;SDS011;46342;49.046;11.920;2024-03-23T06:46:59;1.50;;;1.23;;
60494;SDS011;46342;49.046;11.920;2024-03-23T06:49:24;1.00;;;1.00;;
60494;SDS011;46342;49.046;11.920;2024-03-23T06:51:50;1.52;;;1.20;;
60494;SDS011;46342;49.046;11.920;2024-03-23T06:54:16;1.75;;;1.30;;
60494;SDS011;46342;49.046;11.920;2024-03-23T06:56:43;1.55;;;1.00;;
60494;SDS011;46342;49.046;11.920;2024-03-23T06:59:09;1.08;;;1.00;;
60494;SDS011;46342;49.046;11.920;2024-03-23T07:01:34;1.20;;;1.10;;
60494;SDS011;46342;49.046;11.920;2024-03-23T07:04:00;1.10;;;1.00;;
60494;SDS011;46342;49.046;11.920;2024-03-23T07:06:26;0.80;;;0.80;;
60494;SDS011;46342;49.046;11.920;2024-03-23T07:08:52;1.20;;;1.10;;
60494;SDS011;46342;49.046;11.920;2024-03-23T07:11:18;1.20;;;1.10;;
60494;SDS011;46342;49.046;11.920;2024-03-23T07:13:50;0.90;;;0.90;;
60494;SDS011;46342;49.046;11.920;2024-03-23T07:16:17;1.05;;;1.00;;
60494;SDS011;46342;49.046;11.920;2024-03-23T07:18:43;1.13;;;1.10;;
60494;SDS011;46342;49.046;11.920;2024-03-23T07:21:09;1.65;;;1.08;;
60494;SDS011;46342;49.046;11.920;2024-03-23T07:23:34;1.08;;;0.98;;
60494;SDS011;46342;49.046;11.920;2024-03-23T07:26:00;1.67;;;1.13;;
60494;SDS011;46342;49.046;11.920;2024-03-23T07:28:27;1.20;;;1.10;;
60494;SDS011;46342;49.046;11.920;2024-03-23T07:33:33;1.67;;;1.30;;
60494;SDS011;46342;49.046;11.920;2024-03-23T07:36:00;1.42;;;1.20;;
60494;SDS011;46342;49.046;11.920;2024-03-23T07:38:28;1.20;;;1.10;;
60494;SDS011;46342;49.046;11.920;2024-03-23T07:41:04;2.20;;;1.25;;
60494;SDS011;46342;49.046;11.920;2024-03-23T07:43:50;1.35;;;1.25;;
60494;SDS011;46342;49.046;11.920;2024-03-23T07:46:16;1.42;;;1.20;;
60494;SDS011;46342;49.046;11.920;2024-03-23T07:48:41;1.65;;;1.55;;
60494;SDS011;46342;49.046;11.920;2024-03-23T07:53:39;1.50;;;1.40;;
60494;SDS011;46342;49.046;11.920;2024-03-23T07:58:31;1.65;;;1.52;;
60494;SDS011;46342;49.046;11.920;2024-03-23T08:01:03;1.88;;;1.33;;
60494;SDS011;46342;49.046;11.920;2024-03-23T08:03:30;1.60;;;1.30;;
60494;SDS011;46342;49.046;11.920;2024-03-23T08:05:55;1.95;;;1.30;;
60494;SDS011;46342;49.046;11.920;2024-03-23T08:08:21;1.30;;;1.20;;
60494;SDS011;46342;49.046;11.920;2024-03-23T08:10:50;1.60;;;1.30;;
60494;SDS011;46342;49.046;11.920;2024-03-23T08:13:16;1.58;;;1.40;;
60494;SDS011;46342;49.046;11.920;2024-03-23T08:15:42;1.17;;;1.08;;
60494;SDS011;46342;49.046;11.920;2024-03-23T08:18:09;1.88;;;1.17;;
60494;SDS011;46342;49.046;11.920;2024-03-23T08:20:35;1.30;;;1.20;;
60494;SDS011;46342;49.046;11.920;2024-03-23T08:23:01;2.05;;;1.08;;
60494;SDS011;46342;49.046;11.920;2024-03-23T08:25:26;1.45;;;1.10;;
60494;SDS011;46342;49.046;11.920;2024-03-23T08:27:52;1.23;;;1.13;;
60494;SDS011;46342;49.046;11.920;2024-03-23T08:30:17;0.93;;;0.90;;
60494;SDS011;46342;49.046;11.920;2024-03-23T08:32:43;1.00;;;0.90;;
60494;SDS011;46342;49.046;11.920;2024-03-23T08:35:09;1.38;;;1.27;;
60494;SDS011;46342;49.046;11.920;2024-03-23T08:37:34;1.88;;;1.20;;
60494;SDS011;46342;49.046;11.920;2024-03-23T08:40:00;1.77;;;1.20;;
60494;SDS011;46342;49.046;11.920;2024-03-23T08:42:25;1.33;;;1.20;;
60494;SDS011;46342;49.046;11.920;2024-03-23T08:44:51;1.20;;;1.05;;
60494;SDS011;46342;49.046;11.920;2024-03-23T08:47:17;1.25;;;1.15;;
60494;SDS011;46342;49.046;11.920;2024-03-23T08:49:42;1.30;;;1.20;;
60494;SDS011;46342;49.046;11.920;2024-03-23T08:52:09;1.02;;;0.93;;
60494;SDS011;46342;49.046;11.920;2024-03-23T08:54:35;1.23;;;1.10;;
60494;SDS011;46342;49.046;11.920;2024-03-23T08:57:00;1.40;;;1.20;;
60494;SDS011;46342;49.046;11.920;2024-03-23T08:59:26;1.40;;;1.20;;
60494;SDS011;46342;49.046;11.920;2024-03-23T09:01:52;1.50;;;1.40;;
60494;SDS011;46342;49.046;11.920;2024-03-23T09:04:18;1.65;;;1.38;;
60494;SDS011;46342;49.046;11.920;2024-03-23T09:06:44;1.40;;;1.30;;
60494;SDS011;46342;49.046;11.920;2024-03-23T09:09:09;2.30;;;1.40;;
60494;SDS011;46342;49.046;11.920;2024-03-23T09:11:35;1.52;;;1.42;;
60494;SDS011;46342;49.046;11.920;2024-03-23T09:14:00;1.60;;;1.50;;
60494;SDS011;46342;49.046;11.920;2024-03-23T09:16:26;1.50;;;1.40;;
60494;SDS011;46342;49.046;11.920;2024-03-23T09:18:52;1.40;;;1.30;;
60494;SDS011;46342;49.046;11.920;2024-03-23T09:21:17;1.40;;;1.30;;
60494;SDS011;46342;49.046;11.920;2024-03-23T09:23:44;1.40;;;1.30;;
60494;SDS011;46342;49.046;11.920;2024-03-23T09:26:10;1.10;;;1.10;;
60494;SDS011;46342;49.046;11.920;2024-03-23T09:28:35;1.55;;;1.20;;
60494;SDS011;46342;49.046;11.920;2024-03-23T09:31:02;1.15;;;1.08;;
60494;SDS011;46342;49.046;11.920;2024-03-23T09:33:28;1.27;;;1.17;;
60494;SDS011;46342;49.046;11.920;2024-03-23T09:35:54;1.50;;;1.40;;
60494;SDS011;46342;49.046;11.920;2024-03-23T09:38:21;1.30;;;1.10;;
60494;SDS011;46342;49.046;11.920;2024-03-23T09:40:48;1.50;;;1.40;;
60494;SDS011;46342;49.046;11.920;2024-03-23T09:43:18;1.85;;;1.00;;
60494;SDS011;46342;49.046;11.920;2024-03-23T09:45:44;1.55;;;1.20;;
60494;SDS011;46342;49.046;11.920;2024-03-23T09:48:10;1.48;;;1.30;;
60494;SDS011;46342;49.046;11.920;2024-03-23T09:50:40;1.15;;;1.00;;
60494;SDS011;46342;49.046;11.920;2024-03-23T09:53:07;1.08;;;1.05;;
60494;SDS011;46342;49.046;11.920;2024-03-23T09:55:33;0.90;;;0.90;;
60494;SDS011;46342;49.046;11.920;2024-03-23T09:58:03;1.08;;;0.98;;
60494;SDS011;46342;49.046;11.920;2024-03-23T10:00:30;1.57;;;1.10;;
60494;SDS011;46342;49.046;11.920;2024-03-23T10:02:56;1.08;;;0.98;;
60494;SDS011;46342;49.046;11.920;2024-03-23T10:05:26;1.17;;;1.08;;
60494;SDS011;46342;49.046;11.920;2024-03-23T10:07:53;0.80;;;0.80;;
60494;SDS011;46342;49.046;11.920;2024-03-23T10:10:18;0.93;;;0.93;;
60494;SDS011;46342;49.046;11.920;2024-03-23T10:12:46;0.95;;;0.90;;
60494;SDS011;46342;49.046;11.920;2024-03-23T10:15:18;1.17;;;1.00;;
60494;SDS011;46342;49.046;11.920;2024-03-23T10:17:50;1.23;;;1.13;;
60494;SDS011;46342;49.046;11.920;2024-03-23T10:20:22;0.90;;;0.90;;
60494;SDS011;46342;49.046;11.920;2024-03-23T10:22:49;1.00;;;1.00;;
60494;SDS011;46342;49.046;11.920;2024-03-23T10:25:16;1.20;;;0.70;;
60494;SDS011;46342;49.046;11.920;2024-03-23T10:27:42;2.65;;;0.82;;
60494;SDS011;46342;49.046;11.920;2024-03-23T10:32:38;0.80;;;0.80;;
60494;SDS011;46342;49.046;11.920;2024-03-23T10:37:48;0.60;;;0.60;;
60494;SDS011;46342;49.046;11.920;2024-03-23T10:40:15;0.70;;;0.70;;
60494;SDS011;46342;49.046;11.920;2024-03-23T10:42:41;0.52;;;0.52;;
60494;SDS011;46342;49.046;11.920;2024-03-23T10:45:08;0.70;;;0.70;;
60494;SDS011;46342;49.046;11.920;2024-03-23T10:47:34;0.60;;;0.60;;
60494;SDS011;46342;49.046;11.920;2024-03-23T10:50:01;0.70;;;0.70;;
60494;SDS011;46342;49.046;11.920;2024-03-23T10:52:27;0.80;;;0.80;;
60494;SDS011;46342;49.046;11.920;2024-03-23T10:54:52;0.60;;;0.60;;
60494;SDS011;46342;49.046;11.920;2024-03-23T10:57:21;1.17;;;0.77;;
60494;SDS011;46342;49.046;11.920;2024-03-23T10:59:51;0.60;;;0.60;;
60494;SDS011;46342;49.046;11.920;2024-03-23T11:02:19;1.25;;;0.70;;
60494;SDS011;46342;49.046;11.920;2024-03-23T11:04:45;0.60;;;0.60;;
60494;SDS011;46342;49.046;11.920;2024-03-23T11:09:51;0.50;;;0.50;;
60494;SDS011;46342;49.046;11.920;2024-03-23T11:17:30;0.60;;;0.60;;
60494;SDS011;46342;49.046;11.920;2024-03-23T11:20:03;0.60;;;0.60;;
60494;SDS011;46342;49.046;11.920;2024-03-23T11:25:23;0.70;;;0.70;;
60494;SDS011;46342;49.046;11.920;2024-03-23T11:27:51;0.93;;;0.80;;
60494;SDS011;46342;49.046;11.920;2024-03-23T11:30:19;0.65;;;0.60;;
60494;SDS011;46342;49.046;11.920;2024-03-23T11:32:49;1.25;;;0.70;;
60494;SDS011;46342;49.046;11.920;2024-03-23T11:35:28;0.65;;;0.65;;
60494;SDS011;46342;49.046;11.920;2024-03-23T11:38:12;0.80;;;0.73;;
60494;SDS011;46342;49.046;11.920;2024-03-23T11:43:05;0.70;;;0.70;;
60494;SDS011;46342;49.046;11.920;2024-03-23T11:45:38;0.70;;;0.70;;
60494;SDS011;46342;49.046;11.920;2024-03-23T11:48:11;0.70;;;0.70;;
60494;SDS011;46342;49.046;11.920;2024-03-23T11:50:46;0.80;;;0.80;;
60494;SDS011;46342;49.046;11.920;2024-03-23T11:53:16;0.70;;;0.70;;
60494;SDS011;46342;49.046;11.920;2024-03-23T11:55:43;1.00;;;0.88;;
60494;SDS011;46342;49.046;11.920;2024-03-23T11:58:13;0.88;;;0.55;;
60494;SDS011;46342;49.046;11.920;2024-03-23T12:00:39;0.95;;;0.60;;
60494;SDS011;46342;49.046;11.920;2024-03-23T12:03:05;0.63;;;0.63;;
60494;SDS011;46342;49.046;11.920;2024-03-23T12:05:31;1.02;;;0.70;;
60494;SDS011;46342;49.046;11.920;2024-03-23T12:10:50;1.10;;;0.80;;
60494;SDS011;46342;49.046;11.920;2024-03-23T12:13:30;1.23;;;0.70;;
60494;SDS011;46342;49.046;11.920;2024-03-23T12:15:57;1.90;;;0.80;;
60494;SDS011;46342;49.046;11.920;2024-03-23T12:18:45;0.63;;;0.63;;
60494;SDS011;46342;49.046;11.920;2024-03-23T12:21:12;1.25;;;0.70;;
60494;SDS011;46342;49.046;11.920;2024-03-23T12:23:39;0.75;;;0.70;;
60494;SDS011;46342;49.046;11.920;2024-03-23T12:26:05;1.45;;;0.90;;
60494;SDS011;46342;49.046;11.920;2024-03-23T12:28:31;0.70;;;0.70;;
60494;SDS011;46342;49.046;11.920;2024-03-23T12:30:57;0.77;;;0.75;;
60494;SDS011;46342;49.046;11.920;2024-03-23T12:33:23;1.15;;;0.90;;
60494;SDS011;46342;49.046;11.920;2024-03-23T12:35:51;1.48;;;0.90;;
60494;SDS011;46342;49.046;11.920;2024-03-23T12:38:18;1.58;;;0.80;;
60494;SDS011;46342;49.046;11.920;2024-03-23T12:40:47;1.80;;;0.90;;
60494;SDS011;46342;49.046;11.920;2024-03-23T12:43:14;0.77;;;0.77;;
60494;SDS011;46342;49.046;11.920;2024-03-23T12:45:40;0.82;;;0.82;;
60494;SDS011;46342;49.046;11.920;2024-03-23T12:48:06;1.17;;;0.98;;
60494;SDS011;46342;49.046;11.920;2024-03-23T12:50:32;1.85;;;1.00;;
60494;SDS011;46342;49.046;11.920;2024-03-23T12:52:57;1.35;;;0.80;;
60494;SDS011;46342;49.046;11.920;2024-03-23T12:55:23;1.02;;;0.70;;
60494;SDS011;46342;49.046;11.920;2024-03-23T12:57:48;1.25;;;0.90;;
60494;SDS011;46342;49.046;11.920;2024-03-23T13:00:14;1.30;;;0.98;;
60494;SDS011;46342;49.046;11.920;2024-03-23T13:02:42;1.05;;;0.82;;
60494;SDS011;46342;49.046;11.920;2024-03-23T13:05:09;1.33;;;1.23;;
60494;SDS011;46342;49.046;11.920;2024-03-23T13:07:34;2.30;;;0.80;;
60494;SDS011;46342;49.046;11.920;2024-03-23T13:10:00;1.05;;;0.90;;
60494;SDS011;46342;49.046;11.920;2024-03-23T13:12:27;1.08;;;0.88;;
60494;SDS011;46342;49.046;11.920;2024-03-23T13:14:52;1.25;;;0.70;;
60494;SDS011;46342;49.046;11.920;2024-03-23T13:17:18;1.00;;;0.80;;
60494;SDS011;46342;49.046;11.920;2024-03-23T13:19:43;0.82;;;0.70;;
60494;SDS011;46342;49.046;11.920;2024-03-23T13:22:09;0.80;;;0.70;;
60494;SDS011;46342;49.046;11.920;2024-03-23T13:24:38;0.80;;;0.80;;
60494;SDS011;46342;49.046;11.920;2024-03-23T13:27:04;0.80;;;0.73;;
60494;SDS011;46342;49.046;11.920;2024-03-23T13:29:32;0.70;;;0.70;;
60494;SDS011;46342;49.046;11.920;2024-03-23T13:31:59;2.88;;;1.00;;
60494;SDS011;46342;49.046;11.920;2024-03-23T13:34:25;0.80;;;0.80;;
60494;SDS011;46342;49.046;11.920;2024-03-23T13:36:50;1.05;;;0.90;;
60494;SDS011;46342;49.046;11.920;2024-03-23T13:39:16;1.30;;;0.85;;
60494;SDS011;46342;49.046;11.920;2024-03-23T13:41:43;2.47;;;0.90;;
60494;SDS011;46342;49.046;11.920;2024-03-23T13:44:10;1.20;;;1.10;;
60494;SDS011;46342;49.046;11.920;2024-03-23T13:46:37;1.48;;;1.02;;
60494;SDS011;46342;49.046;11.920;2024-03-23T13:49:51;1.17;;;0.77;;
60494;SDS011;46342;49.046;11.920;2024-03-23T13:51:58;1.48;;;0.90;;
60494;SDS011;46342;49.046;11.920;2024-03-23T13:54:24;0.80;;;0.80;;
60494;SDS011;46342;49.046;11.920;2024-03-23T13:56:50;0.85;;;0.70;;
60494;SDS011;46342;49.046;11.920;2024-03-23T13:59:17;3.25;;;1.00;;
60494;SDS011;46342;49.046;11.920;2024-03-23T14:01:42;1.38;;;0.95;;
60494;SDS011;46342;49.046;11.920;2024-03-23T14:04:09;0.70;;;0.70;;
60494;SDS011;46342;49.046;11.920;2024-03-23T14:06:35;1.23;;;0.70;;
60494;SDS011;46342;49.046;11.920;2024-03-23T14:09:01;1.33;;;0.90;;
60494;SDS011;46342;49.046;11.920;2024-03-23T14:11:28;1.40;;;1.10;;
60494;SDS011;46342;49.046;11.920;2024-03-23T14:13:54;1.45;;;1.10;;
60494;SDS011;46342;49.046;11.920;2024-03-23T14:16:20;1.15;;;0.90;;
60494;SDS011;46342;49.046;11.920;2024-03-23T14:18:49;1.05;;;0.90;;
60494;SDS011;46342;49.046;11.920;2024-03-23T14:21:14;1.38;;;0.90;;
60494;SDS011;46342;49.046;11.920;2024-03-23T14:23:40;1.67;;;1.20;;
60494;SDS011;46342;49.046;11.920;2024-03-23T14:26:08;2.17;;;0.82;;
60494;SDS011;46342;49.046;11.920;2024-03-23T14:28:33;1.23;;;0.93;;
60494;SDS011;46342;49.046;11.920;2024-03-23T14:31:00;0.95;;;0.80;;
60494;SDS011;46342;49.046;11.920;2024-03-23T14:33:26;0.80;;;0.80;;
60494;SDS011;46342;49.046;11.920;2024-03-23T14:35:55;2.17;;;1.20;;
60494;SDS011;46342;49.046;11.920;2024-03-23T14:38:22;1.52;;;0.90;;
60494;SDS011;46342;49.046;11.920;2024-03-23T14:40:47;2.47;;;1.15;;
60494;SDS011;46342;49.046;11.920;2024-03-23T14:43:13;0.85;;;0.80;;
60494;SDS011;46342;49.046;11.920;2024-03-23T14:46:05;0.93;;;0.80;;
60494;SDS011;46342;49.046;11.920;2024-03-23T14:48:35;1.05;;;0.95;;
60494;SDS011;46342;49.046;11.920;2024-03-23T14:51:01;1.23;;;1.00;;
60494;SDS011;46342;49.046;11.920;2024-03-23T14:53:33;1.05;;;0.90;;
60494;SDS011;46342;49.046;11.920;2024-03-23T14:56:00;1.33;;;0.90;;
60494;SDS011;46342;49.046;11.920;2024-03-23T14:58:27;0.83;;;0.83;;
60494;SDS011;46342;49.046;11.920;2024-03-23T15:00:53;1.33;;;0.82;;
60494;SDS011;46342;49.046;11.920;2024-03-23T15:03:28;1.40;;;0.80;;
60494;SDS011;46342;49.046;11.920;2024-03-23T15:05:54;0.80;;;0.80;;
60494;SDS011;46342;49.046;11.920;2024-03-23T15:08:21;1.27;;;0.90;;
60494;SDS011;46342;49.046;11.920;2024-03-23T15:10:47;1.67;;;1.00;;
60494;SDS011;46342;49.046;11.920;2024-03-23T15:13:13;1.02;;;0.90;;
60494;SDS011;46342;49.046;11.920;2024-03-23T15:15:40;0.80;;;0.80;;
60494;SDS011;46342;49.046;11.920;2024-03-23T15:18:08;1.83;;;0.90;;
60494;SDS011;46342;49.046;11.920;2024-03-23T15:20:56;2.65;;;1.00;;
60494;SDS011;46342;49.046;11.920;2024-03-23T15:23:30;1.80;;;1.00;;
60494;SDS011;46342;49.046;11.920;2024-03-23T15:25:56;1.83;;;1.00;;
60494;SDS011;46342;49.046;11.920;2024-03-23T15:28:23;1.52;;;0.90;;
60494;SDS011;46342;49.046;11.920;2024-03-23T15:30:49;0.88;;;0.75;;
60494;SDS011;46342;49.046;11.920;2024-03-23T15:33:15;1.55;;;0.80;;
60494;SDS011;46342;49.046;11.920;2024-03-23T15:35:40;0.90;;;0.80;;
60494;SDS011;46342;49.046;11.920;2024-03-23T15:38:06;0.70;;;0.70;;
60494;SDS011;46342;49.046;11.920;2024-03-23T15:40:32;2.17;;;0.90;;
60494;SDS011;46342;49.046;11.920;2024-03-23T15:42:57;1.73;;;1.40;;
60494;SDS011;46342;49.046;11.920;2024-03-23T15:45:23;2.55;;;1.67;;
60494;SDS011;46342;49.046;11.920;2024-03-23T15:47:48;1.58;;;1.17;;
60494;SDS011;46342;49.046;11.920;2024-03-23T15:50:14;1.23;;;1.00;;
60494;SDS011;46342;49.046;11.920;2024-03-23T15:52:40;3.30;;;0.90;;